createdAt,value
2023-05-02T00:00:09.315Z,12.70
2023-05-02T00:01:09.291Z,12.40
2023-05-02T00:02:09.304Z,11.90
2023-05-02T00:03:09.264Z,10.00
2023-05-02T00:04:09.307Z,10.80
2023-05-02T00:05:09.143Z,11.40
2023-05-02T00:06:09.186Z,11.00
2023-05-02T00:07:09.120Z,11.50
2023-05-02T00:08:09.176Z,11.20
2023-05-02T00:09:09.107Z,10.40
2023-05-02T00:10:09.060Z,10.30
2023-05-02T00:11:09.089Z,9.80
2023-05-02T00:12:09.068Z,13.50
2023-05-02T00:13:09.041Z,10.10
2023-05-02T00:14:09.031Z,11.40
2023-05-02T00:15:09.007Z,15.50
2023-05-02T00:16:09.015Z,11.50
2023-05-02T00:17:09.028Z,11.60
2023-05-02T00:18:08.993Z,13.20
2023-05-02T00:19:08.952Z,11.70
2023-05-02T00:20:08.933Z,11.00
2023-05-02T00:21:08.927Z,12.90
2023-05-02T00:22:08.924Z,12.80
2023-05-02T00:23:08.931Z,15.00
2023-05-02T00:24:08.897Z,12.70
2023-05-02T00:25:09.363Z,13.70
2023-05-02T00:26:08.852Z,10.10
2023-05-02T00:27:08.873Z,14.70
2023-05-02T00:28:08.822Z,14.30
2023-05-02T00:29:08.825Z,10.30
2023-05-02T00:30:08.841Z,14.40
2023-05-02T00:31:08.800Z,11.80
2023-05-02T00:32:08.771Z,11.80
2023-05-02T00:33:08.766Z,13.30
2023-05-02T00:34:08.774Z,9.70
2023-05-02T00:35:08.756Z,9.60
2023-05-02T00:36:08.778Z,15.40
2023-05-02T00:37:08.716Z,12.20
2023-05-02T00:38:08.761Z,13.90
2023-05-02T00:39:08.819Z,12.60
2023-05-02T00:40:08.744Z,12.90
2023-05-02T00:41:08.746Z,11.90
2023-05-02T00:42:08.706Z,11.10
2023-05-02T00:43:08.753Z,13.00
2023-05-02T00:44:08.726Z,8.20
2023-05-02T00:45:08.688Z,12.40
2023-05-02T00:46:08.682Z,13.90
2023-05-02T00:47:08.649Z,13.40
2023-05-02T00:48:08.621Z,12.00
2023-05-02T00:49:08.614Z,12.30
2023-05-02T00:50:08.577Z,11.70
2023-05-02T00:51:08.632Z,10.10
2023-05-02T00:52:08.537Z,10.10
2023-05-02T00:53:08.494Z,13.80
2023-05-02T00:54:08.512Z,11.90
2023-05-02T00:55:08.520Z,10.10
2023-05-02T00:56:08.491Z,12.00
2023-05-02T00:57:08.467Z,12.00
2023-05-02T00:58:08.431Z,8.70
2023-05-02T00:59:08.505Z,10.40
2023-05-02T01:00:08.423Z,11.30
2023-05-02T01:01:08.459Z,11.80
2023-05-02T01:02:08.454Z,9.60
2023-05-02T01:03:08.480Z,8.80
2023-05-02T01:04:08.482Z,12.50
2023-05-02T01:05:08.331Z,9.10
2023-05-02T01:06:08.365Z,10.90
2023-05-02T01:07:08.304Z,7.80
2023-05-02T01:08:08.340Z,10.40
2023-05-02T01:09:08.309Z,8.30
2023-05-02T01:10:08.343Z,8.50
2023-05-02T01:11:08.241Z,10.80
2023-05-02T01:12:08.254Z,5.80
2023-05-02T01:13:08.231Z,8.00
2023-05-02T01:15:14.227Z,8.00
2023-05-02T01:16:08.280Z,12.20
2023-05-02T01:17:08.194Z,10.70
2023-05-02T01:18:08.231Z,8.40
2023-05-02T01:19:08.176Z,6.40
2023-05-02T01:20:08.155Z,9.20
2023-05-02T01:21:08.137Z,9.30
2023-05-02T01:22:08.126Z,6.90
2023-05-02T01:23:08.082Z,7.20
2023-05-02T01:24:08.079Z,7.50
2023-05-02T01:25:08.089Z,6.70
2023-05-02T01:26:08.059Z,7.10
2023-05-02T01:27:08.055Z,6.60
2023-05-02T01:28:08.029Z,9.40
2023-05-02T01:29:08.022Z,8.30
2023-05-02T01:30:08.066Z,6.70
2023-05-02T01:31:08.039Z,6.40
2023-05-02T01:32:08.033Z,7.10
2023-05-02T01:33:07.982Z,6.90
2023-05-02T01:34:07.952Z,10.60
2023-05-02T01:35:07.929Z,4.50
2023-05-02T01:36:07.955Z,9.40
2023-05-02T01:37:07.896Z,8.20
2023-05-02T01:38:07.903Z,8.70
2023-05-02T01:39:07.890Z,5.50
2023-05-02T01:40:07.866Z,5.40
2023-05-02T01:41:07.846Z,6.00
2023-05-02T01:42:07.886Z,7.80
2023-05-02T01:43:13.856Z,7.70
2023-05-02T01:44:07.834Z,6.40
2023-05-02T01:45:07.793Z,6.60
2023-05-02T01:46:07.790Z,6.60
2023-05-02T01:47:08.007Z,4.90
2023-05-02T01:48:07.896Z,7.10
2023-05-02T01:49:07.756Z,6.80
2023-05-02T01:50:07.740Z,7.20
2023-05-02T01:51:07.743Z,5.90
2023-05-02T01:52:07.746Z,8.10
2023-05-02T01:53:07.708Z,5.50
2023-05-02T01:54:07.740Z,7.20
2023-05-02T01:55:07.684Z,11.80
2023-05-02T01:56:07.660Z,5.90
2023-05-02T01:57:07.659Z,8.70
2023-05-02T01:58:07.656Z,8.10
2023-05-02T01:59:07.634Z,7.00
2023-05-02T02:00:07.648Z,5.30
2023-05-02T02:01:07.695Z,5.60
2023-05-02T02:02:07.684Z,6.60
2023-05-02T02:03:07.596Z,6.40
2023-05-02T02:04:07.585Z,5.30
2023-05-02T02:05:07.537Z,6.90
2023-05-02T02:06:07.538Z,7.50
2023-05-02T02:07:07.520Z,6.30
2023-05-02T02:08:07.537Z,7.90
2023-05-02T02:09:07.524Z,6.40
2023-05-02T02:10:07.487Z,6.70
2023-05-02T02:11:07.478Z,6.40
2023-05-02T02:12:07.473Z,5.20
2023-05-02T02:13:07.485Z,5.70
2023-05-02T02:14:07.428Z,7.00
2023-05-02T02:15:07.419Z,7.00
2023-05-02T02:16:07.517Z,6.20
2023-05-02T02:17:07.466Z,5.60
2023-05-02T02:18:07.433Z,6.00
2023-05-02T02:19:07.373Z,7.60
2023-05-02T02:20:07.359Z,6.60
2023-05-02T02:21:07.322Z,5.50
2023-05-02T02:22:07.346Z,6.90
2023-05-02T02:23:07.309Z,5.50
2023-05-02T02:24:07.312Z,7.00
2023-05-02T02:25:07.380Z,7.10
2023-05-02T02:26:07.273Z,8.70
2023-05-02T02:27:07.268Z,5.20
2023-05-02T02:28:07.278Z,5.50
2023-05-02T02:29:07.470Z,8.80
2023-05-02T02:30:07.258Z,5.60
2023-05-02T02:31:07.282Z,8.10
2023-05-02T02:32:07.180Z,10.30
2023-05-02T02:33:07.206Z,7.90
2023-05-02T02:34:07.194Z,4.90
2023-05-02T02:35:07.133Z,5.90
2023-05-02T02:36:07.174Z,6.70
2023-05-02T02:37:07.138Z,6.40
2023-05-02T02:38:07.100Z,7.40
2023-05-02T02:39:07.118Z,5.70
2023-05-02T02:40:07.099Z,4.90
2023-05-02T02:41:07.066Z,6.10
2023-05-02T02:42:07.088Z,6.50
2023-05-02T02:43:07.070Z,4.50
2023-05-02T02:44:07.038Z,6.70
2023-05-02T02:45:07.025Z,5.00
2023-05-02T02:46:07.054Z,10.90
2023-05-02T02:47:07.005Z,6.10
2023-05-02T02:48:07.009Z,7.20
2023-05-02T02:49:06.983Z,5.10
2023-05-02T02:50:06.952Z,5.60
2023-05-02T02:51:06.924Z,6.70
2023-05-02T02:52:06.952Z,5.20
2023-05-02T02:53:06.918Z,9.30
2023-05-02T02:54:19.054Z,6.40
2023-05-02T02:55:06.934Z,6.40
2023-05-02T02:56:06.896Z,6.70
2023-05-02T02:57:06.871Z,6.10
2023-05-02T02:58:06.868Z,6.90
2023-05-02T02:59:06.849Z,6.70
2023-05-02T03:00:06.813Z,7.00
2023-05-02T03:01:06.861Z,6.80
2023-05-02T03:02:06.851Z,5.70
2023-05-02T03:03:06.815Z,3.80
2023-05-02T03:04:06.856Z,6.00
2023-05-02T03:05:06.752Z,6.20
2023-05-02T03:06:06.809Z,6.50
2023-05-02T03:07:06.729Z,5.40
2023-05-02T03:08:06.722Z,6.60
2023-05-02T03:09:06.684Z,5.00
2023-05-02T03:10:06.705Z,6.00
2023-05-02T03:11:06.666Z,4.70
2023-05-02T03:12:06.666Z,7.50
2023-05-02T03:13:06.682Z,5.30
2023-05-02T03:14:06.622Z,6.20
2023-05-02T03:15:06.621Z,7.50
2023-05-02T03:16:06.727Z,4.70
2023-05-02T03:17:06.607Z,5.30
2023-05-02T03:18:06.654Z,5.60
2023-05-02T03:19:06.581Z,9.30
2023-05-02T03:20:06.567Z,4.90
2023-05-02T03:21:06.547Z,5.80
2023-05-02T03:22:06.538Z,6.40
2023-05-02T03:23:06.540Z,3.70
2023-05-02T03:24:06.532Z,5.90
2023-05-02T03:25:06.499Z,4.90
2023-05-02T03:26:06.492Z,6.60
2023-05-02T03:27:06.472Z,5.20
2023-05-02T03:28:06.458Z,6.40
2023-05-02T03:29:06.481Z,8.00
2023-05-02T03:30:06.476Z,6.90
2023-05-02T03:31:06.456Z,4.10
2023-05-02T03:32:06.461Z,4.80
2023-05-02T03:33:06.402Z,6.80
2023-05-02T03:34:06.386Z,4.40
2023-05-02T03:35:06.365Z,7.20
2023-05-02T03:36:06.372Z,6.80
2023-05-02T03:37:06.322Z,7.30
2023-05-02T03:38:06.311Z,5.40
2023-05-02T03:39:06.357Z,4.70
2023-05-02T03:40:06.309Z,6.60
2023-05-02T03:41:06.281Z,6.10
2023-05-02T03:42:06.281Z,6.10
2023-05-02T03:43:06.260Z,3.60
2023-05-02T03:44:06.267Z,2.70
2023-05-02T03:45:06.240Z,8.10
2023-05-02T03:46:06.214Z,7.80
2023-05-02T03:47:06.302Z,6.10
2023-05-02T03:48:06.234Z,6.20
2023-05-02T03:49:06.185Z,7.00
2023-05-02T03:50:06.175Z,5.70
2023-05-02T03:51:06.153Z,4.70
2023-05-02T03:52:06.152Z,4.70
2023-05-02T03:53:06.108Z,5.00
2023-05-02T03:54:06.125Z,7.30
2023-05-02T03:55:06.114Z,8.20
2023-05-02T03:56:06.108Z,7.60
2023-05-02T03:57:06.104Z,6.20
2023-05-02T03:58:06.064Z,8.50
2023-05-02T03:59:06.032Z,6.90
2023-05-02T04:00:06.051Z,6.80
2023-05-02T04:01:06.038Z,5.80
2023-05-02T04:02:06.053Z,6.60
2023-05-02T04:03:06.051Z,7.00
2023-05-02T04:04:05.991Z,5.70
2023-05-02T04:05:05.968Z,6.10
2023-05-02T04:06:05.980Z,7.30
2023-05-02T04:07:05.996Z,6.20
2023-05-02T04:08:05.980Z,6.50
2023-05-02T04:09:05.910Z,5.20
2023-05-02T04:10:05.905Z,8.50
2023-05-02T04:11:05.901Z,4.70
2023-05-02T04:12:05.862Z,5.20
2023-05-02T04:13:05.877Z,6.60
2023-05-02T04:14:05.915Z,9.60
2023-05-02T04:15:05.883Z,5.90
2023-05-02T04:16:05.860Z,8.60
2023-05-02T04:17:05.879Z,5.90
2023-05-02T04:18:05.858Z,5.10
2023-05-02T04:19:05.839Z,5.70
2023-05-02T04:20:05.958Z,7.10
2023-05-02T04:21:05.780Z,6.20
2023-05-02T04:22:05.776Z,6.40
2023-05-02T04:23:05.778Z,7.40
2023-05-02T04:24:05.726Z,10.60
2023-05-02T04:25:05.694Z,6.30
2023-05-02T04:26:05.685Z,5.60
2023-05-02T04:27:05.669Z,5.20
2023-05-02T04:28:05.641Z,8.70
2023-05-02T04:29:05.725Z,5.30
2023-05-02T04:30:05.639Z,5.20
2023-05-02T04:31:05.679Z,7.70
2023-05-02T04:32:05.603Z,11.10
2023-05-02T04:33:05.935Z,5.30
2023-05-02T04:34:05.588Z,6.50
2023-05-02T04:35:05.601Z,8.70
2023-05-02T04:36:05.620Z,6.70
2023-05-02T04:37:05.535Z,6.60
2023-05-02T04:38:05.513Z,8.40
2023-05-02T04:39:05.526Z,4.90
2023-05-02T04:40:05.513Z,5.80
2023-05-02T04:41:08.825Z,6.60
2023-05-02T04:42:05.527Z,8.20
2023-05-02T04:43:05.445Z,6.30
2023-05-02T04:44:05.457Z,8.40
2023-05-02T04:45:05.440Z,6.70
2023-05-02T04:46:05.430Z,6.80
2023-05-02T04:47:05.440Z,7.30
2023-05-02T04:48:05.472Z,7.40
2023-05-02T04:49:05.373Z,5.10
2023-05-02T04:50:05.378Z,6.30
2023-05-02T04:51:05.361Z,6.20
2023-05-02T04:52:05.325Z,5.40
2023-05-02T04:53:05.339Z,4.60
2023-05-02T04:54:05.295Z,5.90
2023-05-02T04:55:05.295Z,5.70
2023-05-02T04:56:05.263Z,4.70
2023-05-02T04:57:05.309Z,4.70
2023-05-02T04:58:05.255Z,9.10
2023-05-02T04:59:05.238Z,5.70
2023-05-02T05:00:05.223Z,4.60
2023-05-02T05:01:05.233Z,8.40
2023-05-02T05:02:05.477Z,3.70
2023-05-02T05:03:05.261Z,5.50
2023-05-02T05:04:05.363Z,6.90
2023-05-02T05:05:05.161Z,6.20
2023-05-02T05:06:05.237Z,4.70
2023-05-02T05:07:05.176Z,6.90
2023-05-02T05:08:05.131Z,5.90
2023-05-02T05:09:05.118Z,6.00
2023-05-02T05:10:05.098Z,4.80
2023-05-02T05:11:05.135Z,7.70
2023-05-02T05:12:05.073Z,7.10
2023-05-02T05:13:05.080Z,4.60
2023-05-02T05:14:05.075Z,5.90
2023-05-02T05:15:05.033Z,4.90
2023-05-02T05:16:05.022Z,4.60
2023-05-02T05:17:05.012Z,4.30
2023-05-02T05:18:05.199Z,4.60
2023-05-02T05:19:04.987Z,5.50
2023-05-02T05:20:04.968Z,10.70
2023-05-02T05:21:04.963Z,9.70
2023-05-02T05:22:04.949Z,5.00
2023-05-02T05:23:04.963Z,5.50
2023-05-02T05:24:04.925Z,4.80
2023-05-02T05:25:04.940Z,7.60
2023-05-02T05:26:04.902Z,5.10
2023-05-02T05:27:04.880Z,7.70
2023-05-02T05:28:04.869Z,6.10
2023-05-02T05:29:04.851Z,5.70
2023-05-02T05:30:04.860Z,9.20
2023-05-02T05:31:04.872Z,6.50
2023-05-02T05:32:04.837Z,6.80
2023-05-02T05:33:04.787Z,4.90
2023-05-02T05:34:04.845Z,5.60
2023-05-02T05:35:04.784Z,5.80
2023-05-02T05:36:04.790Z,5.10
2023-05-02T05:37:04.750Z,5.00
2023-05-02T05:38:04.752Z,8.00
2023-05-02T05:39:04.708Z,5.00
2023-05-02T05:40:04.814Z,5.90
2023-05-02T05:41:04.714Z,7.80
2023-05-02T05:42:04.694Z,10.60
2023-05-02T05:43:04.698Z,5.20
2023-05-02T05:44:04.662Z,7.00
2023-05-02T05:45:04.661Z,7.20
2023-05-02T05:46:04.642Z,5.80
2023-05-02T05:47:04.646Z,5.70
2023-05-02T05:48:05.045Z,8.20
2023-05-02T05:49:04.594Z,7.50
2023-05-02T05:50:04.573Z,7.40
2023-05-02T05:51:04.570Z,8.60
2023-05-02T05:52:04.583Z,7.40
2023-05-02T05:53:04.536Z,6.50
2023-05-02T05:54:04.505Z,8.70
2023-05-02T05:55:04.519Z,8.00
2023-05-02T05:56:04.480Z,8.90
2023-05-02T05:57:04.492Z,6.50
2023-05-02T05:58:04.445Z,8.70
2023-05-02T05:59:04.446Z,5.50
2023-05-02T06:00:04.555Z,4.80
2023-05-02T06:01:04.460Z,5.60
2023-05-02T06:02:04.443Z,5.80
2023-05-02T06:03:05.513Z,5.50
2023-05-02T06:04:04.485Z,6.80
2023-05-02T06:05:04.530Z,6.30
2023-05-02T06:06:04.405Z,7.60
2023-05-02T06:07:04.350Z,10.20
2023-05-02T06:08:04.355Z,6.50
2023-05-02T06:09:04.343Z,7.20
2023-05-02T06:10:04.315Z,7.70
2023-05-02T06:11:04.309Z,6.20
2023-05-02T06:12:04.267Z,11.90
2023-05-02T06:13:04.276Z,5.00
2023-05-02T06:14:04.247Z,6.90
2023-05-02T06:15:04.248Z,14.40
2023-05-02T06:16:04.323Z,8.00
2023-05-02T06:17:04.233Z,8.30
2023-05-02T06:18:04.235Z,5.30
2023-05-02T06:19:04.198Z,6.80
2023-05-02T06:20:04.219Z,7.40
2023-05-02T06:21:04.228Z,7.30
2023-05-02T06:22:04.134Z,7.50
2023-05-02T06:23:04.162Z,8.70
2023-05-02T06:24:04.144Z,6.60
2023-05-02T06:25:04.102Z,6.80
2023-05-02T06:26:04.104Z,7.90
2023-05-02T06:27:04.211Z,8.00
2023-05-02T06:28:04.074Z,8.40
2023-05-02T06:29:04.084Z,5.80
2023-05-02T06:30:04.257Z,5.60
2023-05-02T06:31:04.143Z,7.40
2023-05-02T06:32:04.075Z,6.40
2023-05-02T06:33:04.125Z,7.30
2023-05-02T06:34:03.989Z,8.90
2023-05-02T06:35:03.986Z,12.00
2023-05-02T06:36:03.958Z,8.20
2023-05-02T06:37:03.939Z,8.30
2023-05-02T06:38:03.983Z,8.80
2023-05-02T06:39:03.935Z,7.80
2023-05-02T06:40:04.225Z,8.90
2023-05-02T06:41:03.902Z,7.90
2023-05-02T06:42:03.902Z,7.50
2023-05-02T06:43:03.872Z,7.70
2023-05-02T06:44:03.888Z,9.30
2023-05-02T06:45:03.837Z,11.20
2023-05-02T06:46:04.096Z,9.10
2023-05-02T06:47:03.894Z,7.90
2023-05-02T06:48:03.874Z,12.00
2023-05-02T06:49:03.874Z,7.80
2023-05-02T06:50:03.933Z,7.20
2023-05-02T06:51:03.765Z,8.70
2023-05-02T06:52:03.738Z,7.00
2023-05-02T06:53:03.751Z,11.80
2023-05-02T06:54:03.738Z,8.10
2023-05-02T06:55:03.773Z,7.90
2023-05-02T06:56:03.729Z,7.30
2023-05-02T06:57:03.703Z,7.30
2023-05-02T06:58:03.737Z,7.70
2023-05-02T06:59:03.662Z,10.70
2023-05-02T07:00:03.915Z,8.40
2023-05-02T07:01:03.717Z,14.20
2023-05-02T07:02:05.349Z,10.40
2023-05-02T07:03:03.632Z,8.60
2023-05-02T07:04:03.606Z,7.50
2023-05-02T07:05:03.585Z,9.00
2023-05-02T07:06:03.654Z,10.30
2023-05-02T07:07:03.546Z,10.80
2023-05-02T07:08:03.531Z,10.80
2023-05-02T07:09:03.539Z,11.50
2023-05-02T07:10:03.571Z,8.50
2023-05-02T07:11:03.516Z,9.50
2023-05-02T07:12:06.075Z,9.50
2023-05-02T07:13:03.477Z,10.90
2023-05-02T07:14:03.449Z,9.30
2023-05-02T07:15:03.463Z,9.50
2023-05-02T07:16:03.505Z,8.50
2023-05-02T07:17:03.484Z,9.70
2023-05-02T07:18:03.446Z,8.80
2023-05-02T07:19:03.379Z,8.60
2023-05-02T07:20:03.934Z,12.80
2023-05-02T07:21:03.359Z,12.10
2023-05-02T07:22:03.378Z,10.60
2023-05-02T07:23:03.362Z,10.10
2023-05-02T07:24:03.362Z,10.70
2023-05-02T07:25:03.352Z,12.60
2023-05-02T07:26:05.586Z,9.90
2023-05-02T07:27:03.300Z,11.30
2023-05-02T07:28:03.358Z,11.90
2023-05-02T07:29:03.257Z,10.40
2023-05-02T07:30:03.670Z,10.60
2023-05-02T07:31:03.253Z,11.50
2023-05-02T07:32:03.279Z,10.20
2023-05-02T07:33:03.205Z,10.50
2023-05-02T07:34:03.254Z,9.70
2023-05-02T07:35:03.178Z,10.70
2023-05-02T07:36:03.199Z,11.30
2023-05-02T07:37:03.153Z,9.20
2023-05-02T07:38:03.158Z,9.00
2023-05-02T07:39:03.137Z,10.40
2023-05-02T07:40:03.441Z,11.40
2023-05-02T07:41:03.095Z,8.20
2023-05-02T07:42:03.096Z,11.90
2023-05-02T07:43:03.211Z,10.20
2023-05-02T07:45:14.256Z,8.40
2023-05-02T07:46:15.235Z,10.40
2023-05-02T07:47:15.240Z,7.30
2023-05-02T07:48:16.384Z,9.30
2023-05-02T07:49:15.189Z,9.30
2023-05-02T07:50:16.605Z,15.70
2023-05-02T07:51:15.153Z,7.60
2023-05-02T07:52:15.191Z,10.60
2023-05-02T07:53:15.109Z,7.80
2023-05-02T07:54:15.110Z,6.80
2023-05-02T07:55:18.826Z,8.20
2023-05-02T07:56:17.630Z,9.00
2023-05-02T07:57:15.052Z,10.40
2023-05-02T07:58:18.280Z,10.40
2023-05-02T07:59:18.611Z,8.60
2023-05-02T08:00:15.065Z,6.20
2023-05-02T08:01:16.313Z,6.50
2023-05-02T08:02:15.053Z,7.30
2023-05-02T08:03:16.057Z,11.10
2023-05-02T08:04:16.296Z,8.10
2023-05-02T08:05:18.317Z,8.90
2023-05-02T08:06:19.041Z,6.20
2023-05-02T08:07:15.557Z,6.50
2023-05-02T08:08:14.947Z,5.50
2023-05-02T08:09:15.289Z,6.20
2023-05-02T08:10:14.902Z,7.30
2023-05-02T08:11:17.097Z,5.50
2023-05-02T08:12:17.315Z,4.70
2023-05-02T08:13:16.999Z,6.40
2023-05-02T08:14:18.031Z,4.90
2023-05-02T08:15:17.462Z,6.10
2023-05-02T08:16:18.185Z,6.20
2023-05-02T08:17:18.395Z,6.10
2023-05-02T08:18:17.461Z,8.80
2023-05-02T08:19:14.770Z,8.70
2023-05-02T08:20:14.797Z,8.40
2023-05-02T08:21:16.722Z,7.70
2023-05-02T08:22:18.445Z,7.30
2023-05-02T08:23:17.395Z,9.40
2023-05-02T08:24:17.920Z,12.20
2023-05-02T08:25:14.803Z,12.10
2023-05-02T08:26:17.260Z,5.90
2023-05-02T08:27:16.812Z,6.90
2023-05-02T08:28:15.948Z,7.50
2023-05-02T08:29:17.352Z,5.90
2023-05-02T08:30:14.680Z,8.20
2023-05-02T08:31:14.633Z,7.40
2023-05-02T08:32:14.658Z,9.40
2023-05-02T08:33:14.664Z,11.00
2023-05-02T08:34:14.608Z,7.70
2023-05-02T08:35:14.612Z,6.60
2023-05-02T08:36:14.568Z,10.20
2023-05-02T08:37:14.542Z,5.80
2023-05-02T08:38:14.582Z,9.00
2023-05-02T08:39:14.513Z,6.60
2023-05-02T08:40:14.708Z,7.20
2023-05-02T08:41:14.500Z,6.60
2023-05-02T08:42:14.479Z,5.60
2023-05-02T08:43:14.506Z,7.30
2023-05-02T08:44:14.453Z,5.70
2023-05-02T08:45:16.347Z,6.50
2023-05-02T08:46:14.489Z,5.70
2023-05-02T08:47:14.476Z,7.90
2023-05-02T08:48:14.463Z,7.30
2023-05-02T08:49:14.419Z,6.60
2023-05-02T08:50:14.432Z,5.70
2023-05-02T08:51:14.367Z,6.80
2023-05-02T08:52:14.342Z,7.00
2023-05-02T08:53:14.362Z,10.70
2023-05-02T08:54:14.334Z,6.00
2023-05-02T08:55:14.283Z,6.30
2023-05-02T08:56:14.278Z,8.00
2023-05-02T08:57:14.299Z,5.60
2023-05-02T08:58:15.491Z,5.70
2023-05-02T08:59:14.248Z,7.40
2023-05-02T09:00:14.238Z,6.30
2023-05-02T09:01:14.359Z,10.30
2023-05-02T09:02:14.213Z,5.60
2023-05-02T09:03:14.206Z,6.50
2023-05-02T09:04:14.229Z,6.60
2023-05-02T09:05:14.191Z,5.90
2023-05-02T09:06:14.200Z,6.50
2023-05-02T09:07:14.385Z,5.10
2023-05-02T09:08:14.111Z,6.00
2023-05-02T09:09:14.122Z,5.80
2023-05-02T09:10:14.083Z,6.90
2023-05-02T09:11:14.109Z,5.30
2023-05-02T09:12:14.075Z,5.20
2023-05-02T09:13:14.054Z,5.50
2023-05-02T09:14:14.051Z,4.70
2023-05-02T09:15:14.055Z,4.00
2023-05-02T09:16:14.036Z,6.70
2023-05-02T09:17:14.008Z,4.30
2023-05-02T09:18:13.977Z,6.10
2023-05-02T09:19:13.968Z,3.70
2023-05-02T09:20:13.977Z,3.60
2023-05-02T09:21:14.013Z,4.00
2023-05-02T09:22:13.941Z,2.90
2023-05-02T09:23:13.920Z,3.40
2023-05-02T09:24:13.913Z,2.40
2023-05-02T09:25:13.910Z,3.20
2023-05-02T09:26:13.882Z,3.60
2023-05-02T09:27:13.919Z,3.70
2023-05-02T09:28:13.877Z,3.50
2023-05-02T09:29:13.840Z,3.20
2023-05-02T09:30:13.836Z,3.70
2023-05-02T09:31:15.230Z,3.60
2023-05-02T09:32:13.896Z,3.70
2023-05-02T09:33:13.958Z,3.80
2023-05-02T09:34:13.844Z,3.10
2023-05-02T09:35:13.816Z,3.20
2023-05-02T09:36:13.732Z,4.10
2023-05-02T09:37:13.775Z,3.10
2023-05-02T09:38:13.747Z,2.60
2023-05-02T09:39:13.853Z,4.40
2023-05-02T09:40:13.745Z,3.90
2023-05-02T09:41:13.698Z,3.30
2023-05-02T09:42:13.733Z,3.70
2023-05-02T09:43:13.699Z,3.70
2023-05-02T09:44:13.689Z,2.70
2023-05-02T09:45:13.626Z,5.10
2023-05-02T09:46:13.692Z,2.60
2023-05-02T09:47:13.665Z,3.40
2023-05-02T09:48:13.604Z,4.70
2023-05-02T09:49:13.596Z,4.00
2023-05-02T09:50:13.592Z,4.50
2023-05-02T09:51:13.572Z,2.90
2023-05-02T09:52:13.560Z,3.30
2023-05-02T09:53:13.561Z,3.50
2023-05-02T09:54:13.541Z,3.40
2023-05-02T09:55:13.581Z,2.90
2023-05-02T09:56:13.524Z,2.40
2023-05-02T09:57:13.505Z,3.00
2023-05-02T09:58:13.479Z,4.10
2023-05-02T09:59:13.452Z,5.10
2023-05-02T10:00:13.481Z,2.90
2023-05-02T10:01:13.479Z,4.80
2023-05-02T10:02:13.427Z,4.40
2023-05-02T10:03:13.483Z,4.10
2023-05-02T10:04:13.469Z,2.10
2023-05-02T10:05:13.410Z,5.10
2023-05-02T10:06:13.416Z,3.50
2023-05-02T10:07:13.364Z,4.00
2023-05-02T10:08:13.356Z,4.40
2023-05-02T10:09:17.200Z,4.50
2023-05-02T10:10:13.378Z,4.30
2023-05-02T10:11:13.313Z,4.30
2023-05-02T10:12:13.305Z,4.30
2023-05-02T10:13:13.271Z,3.80
2023-05-02T10:14:13.274Z,2.10
2023-05-02T10:15:13.438Z,3.60
2023-05-02T10:16:13.324Z,4.10
2023-05-02T10:17:13.317Z,5.90
2023-05-02T10:18:13.317Z,4.60
2023-05-02T10:19:13.223Z,4.20
2023-05-02T10:20:13.162Z,6.10
2023-05-02T10:21:13.206Z,3.30
2023-05-02T10:22:13.172Z,3.30
2023-05-02T10:23:13.128Z,3.90
2023-05-02T10:24:13.134Z,3.30
2023-05-02T10:25:13.121Z,3.00
2023-05-02T10:26:13.138Z,4.40
2023-05-02T10:27:13.092Z,4.20
2023-05-02T10:28:13.094Z,3.50
2023-05-02T10:29:13.083Z,4.40
2023-05-02T10:30:13.057Z,3.60
2023-05-02T10:31:13.082Z,3.70
2023-05-02T10:32:13.039Z,4.00
2023-05-02T10:33:13.067Z,2.30
2023-05-02T10:34:12.981Z,2.00
2023-05-02T10:35:13.004Z,4.70
2023-05-02T10:36:12.979Z,2.40
2023-05-02T10:37:12.946Z,3.30
2023-05-02T10:38:12.971Z,4.10
2023-05-02T10:39:12.914Z,6.70
2023-05-02T10:40:12.924Z,3.40
2023-05-02T10:41:12.950Z,7.90
2023-05-02T10:42:12.904Z,5.70
2023-05-02T10:43:12.919Z,3.50
2023-05-02T10:44:12.879Z,3.40
2023-05-02T10:45:12.862Z,3.80
2023-05-02T10:46:12.863Z,3.50
2023-05-02T10:47:12.826Z,3.00
2023-05-02T10:48:12.853Z,3.10
2023-05-02T10:49:12.828Z,3.00
2023-05-02T10:50:12.799Z,3.20
2023-05-02T10:51:12.789Z,5.40
2023-05-02T10:52:12.755Z,2.40
2023-05-02T10:53:12.735Z,4.60
2023-05-02T10:54:12.724Z,12.30
2023-05-02T10:55:12.721Z,2.20
2023-05-02T10:56:12.710Z,3.70
2023-05-02T10:57:12.695Z,3.50
2023-05-02T10:58:12.674Z,4.00
2023-05-02T10:59:12.682Z,5.30
2023-05-02T11:00:12.674Z,4.90
2023-05-02T11:01:12.680Z,3.70
2023-05-02T11:02:12.675Z,4.30
2023-05-02T11:03:12.651Z,4.60
2023-05-02T11:04:12.601Z,3.70
2023-05-02T11:05:12.609Z,3.50
2023-05-02T11:06:12.610Z,4.40
2023-05-02T11:07:12.573Z,5.00
2023-05-02T11:08:12.548Z,4.20
2023-05-02T11:09:12.539Z,3.10
2023-05-02T11:10:12.503Z,2.90
2023-05-02T11:11:12.531Z,3.60
2023-05-02T11:12:12.468Z,4.20
2023-05-02T11:13:12.485Z,2.70
2023-05-02T11:14:13.577Z,2.70
2023-05-02T11:15:12.455Z,3.80
2023-05-02T11:16:12.494Z,2.30
2023-05-02T11:17:12.429Z,4.40
2023-05-02T11:18:12.844Z,3.50
2023-05-02T11:19:12.390Z,5.00
2023-05-02T11:20:12.411Z,3.50
2023-05-02T11:21:12.682Z,5.00
2023-05-02T11:22:12.358Z,5.20
2023-05-02T11:23:12.355Z,4.50
2023-05-02T11:24:12.343Z,5.70
2023-05-02T11:25:12.372Z,3.00
2023-05-02T11:26:12.295Z,4.00
2023-05-02T11:27:12.311Z,3.80
2023-05-02T11:28:12.311Z,4.70
2023-05-02T11:29:12.262Z,12.00
2023-05-02T11:30:12.277Z,4.90
2023-05-02T11:31:12.269Z,4.50
2023-05-02T11:32:13.868Z,4.60
2023-05-02T11:33:14.371Z,6.90
2023-05-02T11:34:15.184Z,8.40
2023-05-02T11:35:14.810Z,6.80
2023-05-02T11:36:12.174Z,6.90
2023-05-02T11:37:12.168Z,7.30
2023-05-02T11:38:12.129Z,8.30
2023-05-02T11:39:13.649Z,7.90
2023-05-02T11:40:14.837Z,14.20
2023-05-02T11:41:14.503Z,8.80
2023-05-02T11:42:12.116Z,7.80
2023-05-02T11:43:14.826Z,8.10
2023-05-02T11:44:14.525Z,12.10
2023-05-02T11:45:14.366Z,9.50
2023-05-02T11:46:13.247Z,13.20
2023-05-02T11:47:13.583Z,12.40
2023-05-02T11:48:12.090Z,9.60
2023-05-02T11:49:12.670Z,11.30
2023-05-02T11:50:12.095Z,12.50
2023-05-02T11:51:12.024Z,8.10
2023-05-02T11:52:11.963Z,12.70
2023-05-02T11:53:11.976Z,11.30
2023-05-02T11:54:11.928Z,9.20
2023-05-02T11:55:11.930Z,11.90
2023-05-02T11:56:11.921Z,9.10
2023-05-02T11:57:11.888Z,12.10
2023-05-02T11:58:11.899Z,12.50
2023-05-02T11:59:11.895Z,11.00
2023-05-02T12:00:11.886Z,11.10
2023-05-02T12:01:11.845Z,9.80
2023-05-02T12:02:11.884Z,13.10
2023-05-02T12:03:11.949Z,8.40
2023-05-02T12:04:11.885Z,9.80
2023-05-02T12:05:11.883Z,13.50
2023-05-02T12:06:12.433Z,8.00
2023-05-02T12:07:12.365Z,6.50
2023-05-02T12:08:11.736Z,10.90
2023-05-02T12:09:11.748Z,11.90
2023-05-02T12:10:11.987Z,8.10
2023-05-02T12:11:11.753Z,7.50
2023-05-02T12:12:11.715Z,8.50
2023-05-02T12:13:11.998Z,6.30
2023-05-02T12:14:11.696Z,6.30
2023-05-02T12:15:11.680Z,8.20
2023-05-02T12:16:11.693Z,5.10
2023-05-02T12:17:11.662Z,9.80
2023-05-02T12:18:11.793Z,8.90
2023-05-02T12:19:11.612Z,9.10
2023-05-02T12:20:11.678Z,8.30
2023-05-02T12:21:11.609Z,7.70
2023-05-02T12:22:11.583Z,6.50
2023-05-02T12:23:11.665Z,6.50
2023-05-02T12:24:11.553Z,3.80
2023-05-02T12:25:11.540Z,8.50
2023-05-02T12:26:11.530Z,6.80
2023-05-02T12:27:11.500Z,8.40
2023-05-02T12:28:11.498Z,5.80
2023-05-02T12:29:11.489Z,6.80
2023-05-02T12:30:11.477Z,9.50
2023-05-02T12:31:11.511Z,8.80
2023-05-02T12:32:11.445Z,6.50
2023-05-02T12:33:11.480Z,5.80
2023-05-02T12:34:11.413Z,8.30
2023-05-02T12:35:11.405Z,7.00
2023-05-02T12:36:11.392Z,5.90
2023-05-02T12:37:11.432Z,7.40
2023-05-02T12:38:11.357Z,6.20
2023-05-02T12:39:11.352Z,7.80
2023-05-02T12:40:11.317Z,5.90
2023-05-02T12:41:11.335Z,6.60
2023-05-02T12:42:11.332Z,7.80
2023-05-02T12:43:11.297Z,7.00
2023-05-02T12:44:11.287Z,8.80
2023-05-02T12:45:11.296Z,7.20
2023-05-02T12:46:11.316Z,7.50
2023-05-02T12:47:11.273Z,7.90
2023-05-02T12:48:11.280Z,6.80
2023-05-02T12:49:11.230Z,9.00
2023-05-02T12:50:11.209Z,8.40
2023-05-02T12:51:11.194Z,6.90
2023-05-02T12:52:11.178Z,7.70
2023-05-02T12:53:11.165Z,8.40
2023-05-02T12:54:11.150Z,7.50
2023-05-02T12:55:11.141Z,9.40
2023-05-02T12:56:11.133Z,8.90
2023-05-02T12:57:11.135Z,8.40
2023-05-02T12:58:11.101Z,5.70
2023-05-02T12:59:11.080Z,9.70
2023-05-02T13:00:11.083Z,10.10
2023-05-02T13:01:11.131Z,8.40
2023-05-02T13:02:11.040Z,8.60
2023-05-02T13:03:11.141Z,9.30
2023-05-02T13:04:11.073Z,11.70
2023-05-02T13:05:11.016Z,6.50
2023-05-02T13:06:11.082Z,10.40
2023-05-02T13:07:10.994Z,8.00
2023-05-02T13:08:10.958Z,8.20
2023-05-02T13:09:10.963Z,9.50
2023-05-02T13:10:10.924Z,8.90
2023-05-02T13:11:10.905Z,9.50
2023-05-02T13:12:10.933Z,10.30
2023-05-02T13:13:10.880Z,8.10
2023-05-02T13:14:10.920Z,10.20
2023-05-02T13:15:11.004Z,11.20